Alvadore, OR

9:40 PM PDT on September 14, 2014 (GMT -0700)
Timberline Hills East | Change Station
CLOSE
Current Station
Personal Weather Station
Location: Eugene, OR
Elevation: 798 ft
Nearby Weather Stations
Active Advisory: Fire Weather Warning

Elev 798 ft 44.02 °N, 123.14 °W | Updated 43 seconds ago

Partly Cloudy
Partly Cloudy
70.7 °F
Feels Like 76 °F
N
1.6
Wind Variable Wind from South
Gusts 2.0 mph

Today
High -- | Low -- °F
--% Chance of Precip.
Yesterday
High -- | Low -- °F
Precip. -- in
6:51 AM 7:25 PM
Waning Gibbous, 59% visible
Pressure 29.81 in
Visibility 10.0 miles
Clouds Few 6000 ft
Few 30000 ft
Heat Index 76 °F
Dew Point 39 °F
Humidity 32%
Rainfall 0.00 in
Snow Depth 0 in , 0 in , 1 in
UV 0.0 out of 12
Pollen 2.00 out of 12
Ozone Good
PM2.5 Moderate
Flu Activity Not available.
METAR KEUG 150354Z 18003KT 10SM FEW060 FEW300 20/04 A2981 RMK AO2 SLP094 FU FEW060 T02000044

More Conditions Fewer Conditions

Pressure 29.81 in
Visibility 10.0 miles
Clouds Few 6000 ft
Few 30000 ft
Heat Index 76 °F
Dew Point 39 °F
Humidity 32%
Rainfall 0.00 in
Snow Depth 0 in , 0 in , 1 in
UV 0.0 out of 12
Pollen 2.00 out of 12
Ozone Good
PM2.5 Moderate
Flu Activity Not available.
METAR KEUG 150354Z 18003KT 10SM FEW060 FEW300 20/04 A2981 RMK AO2 SLP094 FU FEW060 T02000044

More Conditions Fewer Conditions

10-Day Weather Forecast

Almanac

Astronomy

Sep. 14, 2014 Rise Set
Actual Time 6:51 AM PDT 7:25 PM PDT
Civil Twilight 6:22 AM PDT 7:54 PM PDT
Nautical Twilight 5:47 AM PDT 8:28 PM PDT
Astronomical Twilight 5:11 AM PDT 9:04 PM PDT
Moon 11:09 PM PDT (9/14) 1:14 PM PDT (9/14)
Length of Visible Light 13h 32m
Length of Day
12h 34m
Tomorrow will be 3m 0s shorter.
Waning Gibbous, 59% of the Moon is Illuminated
Sep 15
Waning Gibbous
Sep 15
Last Quarter
Sep 24
New
Oct 1
First Quarter
Oct 8
Full

Yesterday's Extremes

State Highs State Lows

Community

WunderPhotos

Upload Photos

1,753,401 photos uploaded!

Nearby

Air Quality

  Air Quality AQ Index Pollutant
Yesterday Moderate
PM2.5
Yesterday Good
OZONE
Current Moderate
PM2.5
Current Good
OZONE
Sunday Good
PM2.5
Monday Good
PM2.5

Snow Depth

Station Depth Elevation
Irish Taylor 0 in 5500 ft
Beaver Reservoir 0 in 5150 ft
Mt. Howard 1 in 7910 ft
Fish Creek 0 in 7900 ft
Aneroid Lake #2 0 in 7300 ft

Earthquake Activity

City Distance Mag. Time & Date
No recent earthquake activity has been reported nearby.
Minimum magnitude displayed is 2.5.

Coastal Water Temperatures

Place Temperature
No Stations Reporting

Nearby Weather Stations